Time;durP1;ratioP1;P1;durP2;ratioP2;P2;SDS_P1;SDS_P2;PMS_P1;PMS_P2;Temp;Humidity;BMP_temperature;BMP_pressure;BME280_temperature;BME280_humidity;BME280_pressure;Samples;Min_cycle;Max_cycle;Signal;HPM_P1;HPM_P2
2022/09/30 00:02:11;;;;;;;22.15;11.27;;;;;;;7.97;90.04;100348.22;5093119;28;20085;-58
2022/09/30 00:04:37;;;;;;;25.35;11.73;;;;;;;8.02;89.74;100345.13;5092491;28;20090;-58
2022/09/30 00:07:04;;;;;;;21.23;10.88;;;;;;;7.91;90.07;100351.44;5093356;28;20097;-58
2022/09/30 00:09:31;;;;;;;22.63;11.15;;;;;;;7.93;90.50;100351.31;5092992;28;20044;-58
2022/09/30 00:11:57;;;;;;;23.42;11.32;;;;;;;7.95;90.28;100357.25;5071823;28;20045;-58
2022/09/30 00:14:24;;;;;;;22.40;10.95;;;;;;;7.86;90.72;100361.63;5072544;28;20458;-58
2022/09/30 00:16:51;;;;;;;24.88;11.68;;;;;;;7.79;89.72;100371.13;5088641;28;20045;-58
2022/09/30 00:19:17;;;;;;;24.95;11.10;;;;;;;7.87;89.42;100363.28;5072976;28;20059;-58
2022/09/30 00:21:45;;;;;;;20.45;11.55;;;;;;;7.92;89.19;100374.25;5072905;28;20068;-58
2022/09/30 00:24:11;;;;;;;24.95;11.50;;;;;;;7.99;89.55;100375.31;5088481;28;20056;-58
2022/09/30 00:26:38;;;;;;;23.10;11.75;;;;;;;8.01;89.55;100376.00;5072275;28;20070;-58
2022/09/30 00:29:05;;;;;;;20.98;11.13;;;;;;;7.98;89.37;100378.94;5072851;28;20505;-58
2022/09/30 00:31:33;;;;;;;24.17;10.65;;;;;;;7.94;90.15;100379.38;5072740;28;20453;-58
2022/09/30 00:34:07;;;;;;;25.02;11.52;;;;;;;7.94;89.00;100376.75;5072945;28;20398;-59
2022/09/30 00:36:44;;;;;;;27.75;11.32;;;;;;;7.89;89.85;100374.53;5072751;28;20135;-57
2022/09/30 00:39:16;;;;;;;26.45;11.93;;;;;;;7.90;89.03;100373.56;5072656;28;20742;-59
2022/09/30 00:41:44;;;;;;;23.30;12.10;;;;;;;7.91;89.64;100369.94;5086177;28;20054;-56
2022/09/30 00:44:49;;;;;;;24.30;11.52;;;;;;;7.89;88.80;100377.16;5093436;28;20052;-56
2022/09/30 00:47:39;;;;;;;23.58;11.93;;;;;;;7.81;89.58;100372.63;5093757;28;20135;-56
2022/09/30 00:50:25;;;;;;;22.20;11.48;;;;;;;7.83;89.04;100369.84;5096504;28;20404;-58
2022/09/30 00:53:01;;;;;;;27.25;11.60;;;;;;;7.80;89.56;100372.75;5059677;28;20098;-56
2022/09/30 00:55:39;;;;;;;24.63;11.52;;;;;;;7.78;88.80;100382.63;5096585;28;20040;-57
2022/09/30 00:58:10;;;;;;;22.95;11.05;;;;;;;7.80;89.61;100378.03;5075161;28;20071;-58
2022/09/30 01:00:36;;;;;;;25.60;11.32;;;;;;;7.79;89.70;100371.94;5075972;28;20041;-58
2022/09/30 01:03:04;;;;;;;26.05;12.38;;;;;;;7.78;89.66;100369.44;5075939;28;20048;-58
2022/09/30 01:05:33;;;;;;;22.92;11.60;;;;;;;7.81;90.58;100385.81;5075321;28;20040;-59
2022/09/30 01:08:04;;;;;;;32.30;11.88;;;;;;;7.78;90.64;100378.19;5076215;28;20066;-58
2022/09/30 01:10:30;;;;;;;25.40;10.98;;;;;;;7.72;90.68;100380.59;5079382;28;20043;-58
2022/09/30 01:12:58;;;;;;;24.75;11.52;;;;;;;7.73;90.88;100383.09;5095929;28;20072;-58
2022/09/30 01:15:38;;;;;;;25.50;12.05;;;;;;;7.75;90.19;100383.78;5095250;28;20072;-58
2022/09/30 01:18:17;;;;;;;22.40;11.60;;;;;;;7.78;90.14;100385.28;5094893;28;20117;-58
2022/09/30 01:21:07;;;;;;;23.02;11.38;;;;;;;7.82;89.83;100384.88;5096301;28;20040;-57
2022/09/30 01:23:55;;;;;;;24.48;11.35;;;;;;;7.77;89.82;100388.91;5095617;28;20560;-58
2022/09/30 01:29:22;;;;;;;25.60;10.55;;;;;;;7.75;88.83;100389.06;5119037;27;20917;-58
2022/09/30 01:32:15;;;;;;;22.25;11.15;;;;;;;7.57;90.42;100393.41;5131606;27;20088;-58
2022/09/30 01:35:06;;;;;;;23.50;11.57;;;;;;;7.57;90.82;100404.81;5130571;27;20045;-58
2022/09/30 01:43:06;;;;;;;24.90;11.85;;;;;;;7.53;90.43;100395.50;5110633;27;20831;-57
2022/09/30 01:45:54;;;;;;;20.13;11.07;;;;;;;7.47;90.90;100390.78;5111064;28;20489;-58
2022/09/30 01:48:32;;;;;;;22.48;10.30;;;;;;;7.49;90.40;100396.75;5109844;28;20055;-59
2022/09/30 01:51:08;;;;;;;25.20;11.75;;;;;;;7.45;89.63;100392.75;5090358;28;20459;-58
2022/09/30 01:53:44;;;;;;;24.33;11.43;;;;;;;7.50;89.52;100398.44;5101121;28;20469;-59
2022/09/30 01:56:18;;;;;;;20.92;11.40;;;;;;;7.46;89.66;100394.41;5111191;28;20044;-58
2022/09/30 01:59:05;;;;;;;20.80;11.13;;;;;;;7.42;90.77;100393.88;5110532;28;20055;-58
2022/09/30 02:01:45;;;;;;;23.42;11.00;;;;;;;7.36;90.43;100401.50;5110780;28;20039;-58
2022/09/30 02:04:18;;;;;;;29.33;11.55;;;;;;;7.22;90.62;100403.63;5109641;28;20039;-58
2022/09/30 02:06:52;;;;;;;20.23;10.82;;;;;;;7.28;90.17;100400.41;5110888;28;20043;-58
2022/09/30 02:09:26;;;;;;;20.27;10.68;;;;;;;7.37;89.71;100404.00;5110183;28;20063;-59
2022/09/30 02:11:55;;;;;;;21.63;11.27;;;;;;;7.41;90.72;100402.75;5109274;28;20192;-58
2022/09/30 02:14:33;;;;;;;25.48;11.55;;;;;;;7.36;90.55;100393.59;5110217;28;20402;-57
2022/09/30 02:17:22;;;;;;;21.67;10.40;;;;;;;7.40;90.44;100390.50;5110734;28;20069;-56
2022/09/30 02:20:01;;;;;;;24.88;11.30;;;;;;;7.36;90.37;100385.69;5109972;28;20043;-56
2022/09/30 02:22:42;;;;;;;21.77;10.43;;;;;;;7.37;90.45;100385.53;5110684;28;20048;-57
2022/09/30 02:25:17;;;;;;;21.10;10.77;;;;;;;7.30;90.66;100390.53;5110317;28;20039;-57
2022/09/30 02:27:49;;;;;;;21.75;10.95;;;;;;;7.36;90.76;100383.03;5110230;28;20101;-57
2022/09/30 02:30:16;;;;;;;;;;;;;;;7.41;90.23;100386.09;5110678;28;20050;-57
2022/09/30 02:32:49;;;;;;;21.85;10.52;;;;;;;7.35;90.60;100395.41;5110098;28;19924;-57
2022/09/30 02:35:25;;;;;;;23.02;11.10;;;;;;;7.35;90.25;100397.19;5109079;28;20067;-56
2022/09/30 02:38:17;;;;;;;26.35;10.88;;;;;;;7.33;90.28;100407.91;5110231;28;20052;-57
2022/09/30 02:40:51;;;;;;;29.65;11.15;;;;;;;7.36;90.60;100406.78;5109409;28;20047;-56
2022/09/30 02:43:20;;;;;;;21.38;11.07;;;;;;;7.33;90.76;100405.28;5109789;28;20048;-57
2022/09/30 02:45:59;;;;;;;19.08;10.93;;;;;;;7.27;91.16;100405.81;5109753;28;20067;-57
2022/09/30 02:48:52;;;;;;;25.63;10.95;;;;;;;7.22;91.22;100398.34;5110051;28;20044;-57
2022/09/30 02:51:59;;;;;;;20.27;10.90;;;;;;;7.33;91.29;100401.78;5071349;28;20981;-57
2022/09/30 02:54:35;;;;;;;26.13;11.13;;;;;;;7.34;91.69;100403.47;5095393;28;20504;-57
2022/09/30 02:59:42;;;;;;;19.42;10.20;;;;;;;7.20;92.89;100402.91;5110942;27;20746;-57
2022/09/30 03:02:09;;;;;;;20.63;10.43;;;;;;;7.25;92.59;100405.13;5111006;28;20124;-56
2022/09/30 03:04:38;;;;;;;18.83;10.27;;;;;;;7.29;91.96;100415.28;5110269;28;20044;-56
2022/09/30 03:07:05;;;;;;;24.75;10.65;;;;;;;7.24;91.87;100422.78;5109481;28;20052;-56
2022/09/30 03:09:34;;;;;;;17.50;10.32;;;;;;;7.32;91.67;100421.25;5110841;28;20035;-56
2022/09/30 03:12:20;;;;;;;22.00;10.93;;;;;;;7.32;91.34;100422.06;5110505;28;20048;-57
2022/09/30 03:15:15;;;;;;;19.85;10.23;;;;;;;7.24;91.96;100425.41;5111214;28;20131;-57
2022/09/30 03:18:14;;;;;;;18.42;10.90;;;;;;;7.27;91.90;100426.94;5110170;28;20458;-57
2022/09/30 03:20:51;;;;;;;18.20;9.57;;;;;;;7.18;91.58;100425.13;5109412;28;20048;-56
2022/09/30 03:23:35;;;;;;;20.52;10.30;;;;;;;7.16;92.62;100425.25;5109863;28;20050;-57
2022/09/30 03:26:33;;;;;;;21.38;9.88;;;;;;;7.18;92.35;100431.22;5110724;28;20464;-57
2022/09/30 03:29:12;;;;;;;19.52;9.68;;;;;;;7.21;92.37;100432.78;5107121;28;20062;-56
2022/09/30 03:31:53;;;;;;;19.02;9.88;;;;;;;7.14;92.20;100432.50;5090214;28;20654;-56
2022/09/30 03:34:28;;;;;;;22.25;10.50;;;;;;;7.15;91.96;100436.81;5089968;28;20044;-57
2022/09/30 03:37:07;;;;;;;18.65;10.02;;;;;;;7.14;92.30;100434.31;5089856;28;20044;-56
2022/09/30 03:39:44;;;;;;;18.60;9.63;;;;;;;7.13;92.26;100435.25;5089918;28;20393;-56
2022/09/30 03:42:18;;;;;;;20.25;10.90;;;;;;;7.12;91.51;100437.06;5108440;28;20051;-57
2022/09/30 03:45:08;;;;;;;19.98;10.20;;;;;;;7.13;91.98;100436.13;5110383;28;20101;-56
2022/09/30 03:47:43;;;;;;;16.60;9.43;;;;;;;7.15;91.55;100436.81;5110350;28;20078;-56
2022/09/30 03:50:14;;;;;;;19.75;10.00;;;;;;;7.17;91.28;100440.13;5109886;28;20058;-58
2022/09/30 03:52:41;;;;;;;24.88;10.60;;;;;;;7.19;91.15;100446.09;5072223;28;20050;-57
2022/09/30 03:55:10;;;;;;;23.35;9.90;;;;;;;7.12;91.04;100455.53;5108663;28;20398;-57
2022/09/30 03:57:37;;;;;;;22.45;10.43;;;;;;;7.08;91.41;100451.53;5109308;28;20519;-57
2022/09/30 04:00:05;;;;;;;21.90;10.63;;;;;;;7.06;91.12;100451.66;5075264;28;20082;-57
2022/09/30 04:02:42;;;;;;;18.15;9.85;;;;;;;7.08;91.33;100449.72;5110817;27;20380;-56
2022/09/30 04:05:09;;;;;;;19.55;9.95;;;;;;;7.08;91.82;100448.88;5110512;28;20046;-56
2022/09/30 04:07:36;;;;;;;18.98;10.07;;;;;;;7.10;91.95;100454.84;5111171;28;20056;-58
2022/09/30 04:10:04;;;;;;;19.27;9.45;;;;;;;7.04;92.54;100444.84;5110467;28;20059;-58
2022/09/30 04:12:30;;;;;;;20.50;10.30;;;;;;;7.03;93.07;100449.28;5109727;28;20494;-56
2022/09/30 04:14:57;;;;;;;22.65;10.35;;;;;;;7.00;93.11;100454.81;5110693;28;20044;-57
2022/09/30 04:17:24;;;;;;;29.25;10.65;;;;;;;7.00;93.24;100464.56;5109626;28;20047;-57
2022/09/30 04:19:50;;;;;;;19.85;10.55;;;;;;;7.05;93.08;100468.44;5110346;28;20447;-57
2022/09/30 04:22:17;;;;;;;21.10;10.15;;;;;;;7.07;93.00;100471.78;5110839;28;20044;-57
2022/09/30 04:24:44;;;;;;;20.85;10.85;;;;;;;7.08;92.43;100472.63;5111008;28;20173;-56
2022/09/30 04:27:11;;;;;;;22.42;10.10;;;;;;;6.94;92.90;100476.50;5110046;28;20081;-57
2022/09/30 04:29:38;;;;;;;20.40;10.63;;;;;;;6.94;93.19;100483.56;5109214;28;20048;-56
2022/09/30 04:32:05;;;;;;;21.75;9.88;;;;;;;6.99;92.50;100495.38;5109642;28;20451;-56
2022/09/30 04:34:31;;;;;;;17.75;9.73;;;;;;;6.99;93.23;100495.38;5110607;28;20443;-57
2022/09/30 04:36:58;;;;;;;21.10;9.90;;;;;;;7.03;92.55;100491.47;5110284;28;20101;-57
2022/09/30 04:39:25;;;;;;;21.35;10.15;;;;;;;7.05;92.26;100488.72;5107581;28;20135;-56
2022/09/30 04:41:52;;;;;;;19.02;10.02;;;;;;;7.03;92.87;100488.03;5104464;28;20043;-56
2022/09/30 04:44:20;;;;;;;20.02;9.82;;;;;;;6.92;93.56;100489.81;5108975;28;20043;-56
2022/09/30 04:46:47;;;;;;;26.60;10.27;;;;;;;7.00;92.99;100488.28;5110290;28;20057;-57
2022/09/30 04:49:14;;;;;;;21.45;10.68;;;;;;;6.97;92.34;100489.41;5083217;28;20036;-56
2022/09/30 04:51:44;;;;;;;18.92;9.15;;;;;;;7.04;92.66;100494.94;5051644;28;20041;-57
2022/09/30 04:54:12;;;;;;;22.05;9.63;;;;;;;6.92;93.55;100499.53;5089617;28;20068;-58
2022/09/30 04:56:39;;;;;;;24.48;9.07;;;;;;;6.97;93.28;100505.22;5102909;28;20109;-56
2022/09/30 04:59:06;;;;;;;17.27;9.70;;;;;;;7.03;93.32;100493.31;5108525;28;20258;-56
2022/09/30 05:01:32;;;;;;;19.40;10.05;;;;;;;7.00;93.13;100496.19;5106740;28;20047;-57
2022/09/30 05:03:59;;;;;;;19.65;9.70;;;;;;;7.01;92.62;100503.16;5109117;28;20067;-57
2022/09/30 05:06:26;;;;;;;17.60;9.95;;;;;;;7.00;92.60;100502.31;5108090;28;20097;-57
2022/09/30 05:08:52;;;;;;;17.70;9.60;;;;;;;7.00;92.42;100504.94;5109983;28;20130;-57
2022/09/30 05:11:20;;;;;;;19.40;9.65;;;;;;;6.95;92.12;100507.19;5105417;28;20040;-57
2022/09/30 05:13:48;;;;;;;19.20;9.48;;;;;;;6.95;92.71;100504.53;5078386;28;20045;-58
2022/09/30 05:16:16;;;;;;;19.50;9.27;;;;;;;6.79;93.50;100504.22;5074901;28;20485;-57
2022/09/30 05:18:45;;;;;;;24.05;10.00;;;;;;;6.80;92.91;100505.88;5092768;28;20040;-57
2022/09/30 05:21:14;;;;;;;21.23;9.98;;;;;;;6.69;93.66;100509.47;5095914;28;20126;-57
2022/09/30 05:23:41;;;;;;;23.80;9.48;;;;;;;6.66;94.16;100517.66;5095747;28;20044;-57
2022/09/30 05:26:08;;;;;;;18.08;9.90;;;;;;;6.78;94.10;100523.63;5079182;28;20046;-57
2022/09/30 05:28:40;;;;;;;25.75;9.60;;;;;;;6.66;94.10;100530.84;5077962;28;20089;-57
2022/09/30 05:31:07;;;;;;;17.95;10.20;;;;;;;6.81;93.74;100531.28;5088284;28;20615;-57
2022/09/30 05:33:34;;;;;;;21.08;10.27;;;;;;;6.82;93.24;100536.44;5103931;28;20524;-57
2022/09/30 05:36:04;;;;;;;16.42;8.93;;;;;;;6.75;93.03;100537.94;5105960;28;20044;-57
2022/09/30 05:38:31;;;;;;;17.63;10.20;;;;;;;6.79;93.73;100549.88;5094368;28;20058;-57
2022/09/30 05:41:06;;;;;;;18.20;9.68;;;;;;;6.72;93.27;100551.38;5093723;28;20044;-58
2022/09/30 05:43:34;;;;;;;16.33;9.50;;;;;;;6.70;93.45;100558.59;5095240;28;20071;-57
2022/09/30 05:46:00;;;;;;;22.58;9.98;;;;;;;6.80;93.66;100563.88;5095076;28;20051;-57
2022/09/30 05:48:27;;;;;;;23.35;9.48;;;;;;;6.85;93.34;100574.88;5094139;28;20043;-57
2022/09/30 05:50:56;;;;;;;21.35;10.32;;;;;;;6.91;92.73;100569.91;5081935;28;20069;-57
2022/09/30 05:53:23;;;;;;;18.65;9.57;;;;;;;6.92;93.57;100568.09;5074000;28;20553;-57
2022/09/30 05:55:54;;;;;;;19.77;9.68;;;;;;;6.97;92.87;100570.31;5094748;28;20381;-57
2022/09/30 05:58:21;;;;;;;18.23;9.38;;;;;;;6.94;92.93;100576.69;5093318;28;20044;-57
2022/09/30 06:00:49;;;;;;;21.58;9.73;;;;;;;7.01;92.54;100574.38;5094731;28;20060;-57
2022/09/30 06:03:16;;;;;;;18.02;9.70;;;;;;;7.02;92.39;100581.28;5088072;28;20044;-57
2022/09/30 06:05:44;;;;;;;22.95;9.95;;;;;;;7.01;92.96;100577.84;5083734;28;20094;-57
2022/09/30 06:08:12;;;;;;;28.02;15.52;;;;;;;6.97;93.44;100575.59;5093655;28;20123;-57
2022/09/30 06:10:41;;;;;;;22.48;11.18;;;;;;;6.98;93.42;100577.25;5079156;28;20048;-57
2022/09/30 06:13:09;;;;;;;19.73;9.35;;;;;;;7.03;93.35;100581.16;5094600;28;20432;-57
2022/09/30 06:15:37;;;;;;;19.38;9.65;;;;;;;7.11;93.17;100586.63;5090254;28;20044;-57
2022/09/30 06:18:04;;;;;;;18.55;9.65;;;;;;;7.12;94.03;100579.53;5091253;28;20051;-58
2022/09/30 06:20:31;;;;;;;25.08;9.50;;;;;;;7.15;93.79;100583.69;5087433;28;20098;-58
2022/09/30 06:22:59;;;;;;;23.10;10.27;;;;;;;7.18;93.33;100586.06;5074764;28;20543;-57
2022/09/30 06:25:28;;;;;;;21.20;9.88;;;;;;;7.13;93.55;100589.13;5082857;28;20047;-54
2022/09/30 06:27:55;;;;;;;21.13;10.05;;;;;;;7.19;93.21;100598.28;5089687;28;20510;-59
2022/09/30 06:30:23;;;;;;;21.95;10.80;;;;;;;7.26;93.40;100602.88;5087244;28;20078;-59
2022/09/30 06:32:50;;;;;;;20.70;9.70;;;;;;;7.37;93.11;100601.94;5099537;28;20037;-56
2022/09/30 06:35:18;;;;;;;18.77;9.90;;;;;;;7.38;93.10;100608.03;5097844;28;20047;-58
2022/09/30 06:37:45;;;;;;;20.42;10.30;;;;;;;7.45;93.29;100615.28;5088434;28;20110;-59
2022/09/30 06:40:11;;;;;;;19.50;9.80;;;;;;;7.44;93.38;100613.63;5090997;28;20036;-59
2022/09/30 06:42:39;;;;;;;23.15;10.30;;;;;;;7.50;93.20;100615.69;5083638;28;20075;-59
2022/09/30 06:45:06;;;;;;;18.00;9.80;;;;;;;7.53;92.84;100624.31;5098144;28;20386;-58
2022/09/30 06:47:33;;;;;;;23.70;9.95;;;;;;;7.52;93.58;100627.94;5093005;28;20536;-57
2022/09/30 06:50:01;;;;;;;22.95;10.32;;;;;;;7.47;93.36;100629.16;5108279;28;20056;-58
2022/09/30 06:52:27;;;;;;;22.70;9.55;;;;;;;7.59;93.52;100626.41;4963402;28;20041;-57
2022/09/30 06:54:55;;;;;;;24.98;10.20;;;;;;;7.46;93.49;100635.44;5079010;28;20051;-57
2022/09/30 06:57:26;;;;;;;18.50;9.27;;;;;;;7.54;93.13;100639.19;5108959;28;20089;-57
2022/09/30 06:59:55;;;;;;;18.88;9.70;;;;;;;7.41;93.58;100647.38;5080364;28;20045;-56
2022/09/30 07:02:21;;;;;;;20.42;9.88;;;;;;;7.55;93.78;100649.63;5105604;28;20040;-56
2022/09/30 07:04:49;;;;;;;24.55;10.32;;;;;;;7.66;93.10;100649.50;5097199;28;20370;-59
2022/09/30 07:07:15;;;;;;;20.63;10.23;;;;;;;7.73;92.95;100657.72;5086315;28;20122;-57
2022/09/30 07:09:42;;;;;;;21.50;10.60;;;;;;;7.91;92.93;100652.53;5084844;28;20063;-57
2022/09/30 07:12:09;;;;;;;19.23;9.93;;;;;;;7.98;92.56;100653.66;5085083;28;20032;-57
2022/09/30 07:14:36;;;;;;;22.17;9.75;;;;;;;7.77;92.31;100650.34;5085996;28;20055;-57
2022/09/30 07:17:04;;;;;;;20.40;10.90;;;;;;;7.74;92.21;100656.72;5094323;28;20405;-57
2022/09/30 07:19:33;;;;;;;19.42;10.20;;;;;;;7.78;92.69;100652.00;5106503;28;20036;-57
2022/09/30 07:22:26;;;;;;;25.60;10.60;;;;;;;8.01;92.81;100653.38;5090485;28;20039;-56
2022/09/30 07:24:47;;;;;;;18.33;10.75;;;;;;;8.03;92.91;100656.72;5069084;28;20134;-56
2022/09/30 07:27:14;;;;;;;18.10;10.82;;;;;;;7.83;91.56;100655.88;5092357;28;20044;-56
2022/09/30 07:29:40;;;;;;;21.60;9.85;;;;;;;7.97;92.69;100654.66;5090607;28;20050;-56
2022/09/30 07:32:23;;;;;;;19.05;10.90;;;;;;;8.12;91.72;100662.16;5093227;28;20401;-56
2022/09/30 07:34:50;;;;;;;24.55;11.25;;;;;;;8.13;91.10;100661.16;5092729;28;20477;-56
2022/09/30 07:37:18;;;;;;;23.25;10.95;;;;;;;8.21;90.88;100654.22;5091545;28;20075;-56
2022/09/30 07:39:47;;;;;;;22.52;11.25;;;;;;;8.28;90.86;100662.41;5093023;28;20040;-56
2022/09/30 07:42:19;;;;;;;22.85;10.93;;;;;;;8.32;90.03;100665.63;5093208;28;20044;-57
2022/09/30 07:44:50;;;;;;;21.45;11.52;;;;;;;8.49;90.33;100664.06;5092896;28;20051;-56
2022/09/30 07:47:18;;;;;;;24.48;12.13;;;;;;;8.50;89.74;100663.94;5092997;28;20067;-56
2022/09/30 07:49:45;;;;;;;21.90;11.73;;;;;;;8.67;89.36;100669.47;5093231;28;20090;-56
2022/09/30 07:52:13;;;;;;;30.02;12.13;;;;;;;8.62;88.55;100661.94;4971432;28;20447;-56
2022/09/30 07:54:41;;;;;;;22.98;11.10;;;;;;;8.62;88.92;100669.88;5093185;28;20071;-56
2022/09/30 07:57:09;;;;;;;23.02;10.38;;;;;;;8.80;88.48;100660.25;5092908;28;20036;-57
2022/09/30 07:59:39;;;;;;;21.77;11.20;;;;;;;8.98;87.98;100670.06;5092616;28;20042;-56
2022/09/30 08:02:12;;;;;;;22.40;11.15;;;;;;;9.06;87.02;100671.97;5092496;28;20094;-57
2022/09/30 08:04:38;;;;;;;19.38;11.18;;;;;;;9.13;86.92;100668.63;5092117;28;20067;-57
2022/09/30 08:07:08;;;;;;;22.58;11.27;;;;;;;9.23;86.70;100666.72;5092747;28;20048;-57
2022/09/30 08:09:35;;;;;;;23.73;11.93;;;;;;;9.47;85.68;100670.66;5070314;28;20056;-57
2022/09/30 08:12:04;;;;;;;23.20;11.60;;;;;;;9.39;85.47;100667.94;5087268;28;20126;-57
2022/09/30 08:14:31;;;;;;;23.02;11.93;;;;;;;9.41;85.23;100671.25;5091168;28;20039;-57
2022/09/30 08:16:59;;;;;;;22.05;12.73;;;;;;;9.58;85.08;100674.91;5095728;28;20051;-57
2022/09/30 08:19:28;;;;;;;29.42;12.95;;;;;;;9.80;84.81;100676.28;5086155;28;20040;-57
2022/09/30 08:21:56;;;;;;;36.78;12.35;;;;;;;9.95;84.33;100669.50;5085281;28;20062;-57
2022/09/30 08:24:24;;;;;;;30.67;12.93;;;;;;;10.16;84.16;100668.34;5093042;28;20546;-57
2022/09/30 08:26:51;;;;;;;25.00;12.02;;;;;;;10.10;83.96;100666.31;5098538;28;20373;-57
2022/09/30 08:29:18;;;;;;;28.52;12.68;;;;;;;10.30;83.72;100672.28;5090375;28;20401;-57
2022/09/30 08:31:51;;;;;;;26.73;12.15;;;;;;;10.21;83.31;100668.72;5087058;28;20032;-57
2022/09/30 08:34:19;;;;;;;25.75;12.60;;;;;;;10.29;83.87;100671.41;5066581;28;20067;-56
2022/09/30 08:36:45;;;;;;;32.05;13.27;;;;;;;10.44;83.98;100671.75;5071719;28;20512;-57
2022/09/30 08:39:12;;;;;;;24.35;12.40;;;;;;;10.57;82.98;100666.03;5085640;28;20039;-57
2022/09/30 08:41:59;;;;;;;24.60;12.30;;;;;;;10.56;80.72;100667.00;5077720;28;20048;-57
2022/09/30 08:44:46;;;;;;;29.52;12.25;;;;;;;10.52;80.55;100670.97;5082184;28;20062;-58
2022/09/30 08:47:41;;;;;;;23.13;12.15;;;;;;;10.85;79.96;100668.53;5084942;28;20044;-61
2022/09/30 08:50:27;;;;;;;24.67;11.70;;;;;;;11.11;80.12;100664.00;5088247;28;20131;-58
2022/09/30 08:52:58;;;;;;;29.73;12.38;;;;;;;11.11;81.10;100668.47;5047648;28;20035;-59
2022/09/30 08:55:32;;;;;;;32.00;12.23;;;;;;;11.21;79.65;100671.03;5086905;28;20051;-59
2022/09/30 08:58:01;;;;;;;26.20;11.45;;;;;;;11.56;79.77;100677.09;5079450;28;20135;-58
2022/09/30 09:00:28;;;;;;;28.05;12.15;;;;;;;11.68;78.33;100681.13;5082345;28;20041;-56
2022/09/30 09:02:57;;;;;;;20.83;11.48;;;;;;;12.00;76.03;100679.53;5080476;28;20425;-58
2022/09/30 09:05:52;;;;;;;22.33;11.90;;;;;;;12.16;74.48;100678.72;5079001;28;20668;-57
2022/09/30 09:11:02;;;;;;;28.95;12.85;;;;;;;13.76;68.80;100672.44;5109395;27;20397;-57
2022/09/30 09:13:48;;;;;;;22.75;11.27;;;;;;;14.81;63.86;100673.59;5098290;28;20044;-57
2022/09/30 09:16:40;;;;;;;24.40;12.73;;;;;;;16.07;60.37;100678.78;5094604;28;20068;-57
2022/09/30 09:19:09;;;;;;;;;;;;;;;16.99;56.06;100685.91;5094317;28;20114;-57
2022/09/30 09:21:52;;;;;;;21.67;11.80;;;;;;;17.90;54.36;100681.28;5105410;28;20343;-57
2022/09/30 09:24:23;;;;;;;20.50;11.35;;;;;;;18.63;52.41;100673.28;5083543;28;20051;-57
2022/09/30 09:26:53;;;;;;;21.42;11.80;;;;;;;19.42;50.09;100671.41;5104905;28;20047;-57
2022/09/30 09:29:44;;;;;;;24.73;12.77;;;;;;;19.67;48.26;100673.34;5082575;28;20040;-57
2022/09/30 09:32:16;;;;;;;24.23;11.88;;;;;;;20.34;46.31;100668.34;5082678;28;20131;-58
2022/09/30 09:34:56;;;;;;;20.58;11.98;;;;;;;20.72;46.36;100680.91;5098096;28;20046;-58
2022/09/30 09:38:34;;;;;;;27.17;12.93;;;;;;;20.90;46.33;100677.38;5076873;28;20049;-58
2022/09/30 09:41:16;;;;;;;29.20;13.52;;;;;;;21.59;43.37;100669.94;5084879;28;20098;-58
2022/09/30 09:43:52;;;;;;;25.25;13.93;;;;;;;21.25;43.25;100676.78;5088194;28;20041;-57
2022/09/30 09:46:28;;;;;;;27.63;14.23;;;;;;;21.66;43.82;100670.63;5094602;28;20047;-58
2022/09/30 09:52:11;;;;;;;29.10;14.25;;;;;;;21.95;42.32;100668.16;5132618;27;20182;-58
2022/09/30 09:54:43;;;;;;;25.83;14.27;;;;;;;22.33;41.02;100675.06;5151651;27;20147;-59
2022/09/30 09:57:14;;;;;;;27.35;14.50;;;;;;;23.11;39.82;100678.44;5146280;27;20051;-58
2022/09/30 10:03:17;;;;;;;24.40;14.15;;;;;;;22.40;40.69;100669.56;5128718;28;20093;-47
2022/09/30 10:06:07;;;;;;;28.63;14.38;;;;;;;22.95;39.13;100671.84;5125044;28;20043;-46
2022/09/30 10:08:38;;;;;;;25.25;14.02;;;;;;;24.03;37.47;100676.69;5126789;27;20055;-49
2022/09/30 10:11:16;;;;;;;25.67;14.35;;;;;;;23.19;38.04;100678.09;5130409;27;20048;-47
2022/09/30 10:13:44;;;;;;;29.45;14.73;;;;;;;23.10;38.10;100673.28;5125402;28;20122;-49
2022/09/30 10:16:31;;;;;;;28.90;14.80;;;;;;;22.98;38.28;100660.56;5129929;27;20043;-48
2022/09/30 10:18:58;;;;;;;30.80;14.88;;;;;;;23.81;37.34;100657.59;5107704;28;20048;-48
2022/09/30 10:21:27;;;;;;;28.23;14.82;;;;;;;23.78;37.18;100660.78;5129700;28;20027;-47
2022/09/30 10:23:56;;;;;;;32.10;15.93;;;;;;;24.38;35.64;100655.84;5122380;27;20051;-47
2022/09/30 10:26:25;;;;;;;28.63;14.98;;;;;;;24.57;34.66;100659.94;5126474;27;20042;-46
2022/09/30 10:28:57;;;;;;;29.45;14.65;;;;;;;24.96;34.31;100669.94;5144663;27;20054;-48
2022/09/30 10:31:30;;;;;;;22.85;13.77;;;;;;;24.23;35.73;100659.94;5149680;27;20483;-47
2022/09/30 10:34:25;;;;;;;27.05;14.82;;;;;;;25.12;34.53;100668.25;5145735;27;20131;-47
2022/09/30 10:36:54;;;;;;;28.20;14.02;;;;;;;24.09;35.47;100659.44;5150508;27;20103;-50
2022/09/30 10:39:27;;;;;;;25.23;14.25;;;;;;;23.36;37.57;100663.81;5143195;27;20039;-48
2022/09/30 10:42:20;;;;;;;25.20;13.80;;;;;;;23.41;37.80;100660.34;5133076;27;20066;-48
2022/09/30 10:44:56;;;;;;;31.13;14.77;;;;;;;22.32;40.44;100662.63;5126128;28;20154;-48
2022/09/30 10:47:25;;;;;;;26.25;13.48;;;;;;;22.29;40.62;100654.97;5130021;28;20043;-50
2022/09/30 10:50:15;;;;;;;23.73;12.70;;;;;;;21.05;42.62;100664.34;5125818;27;20052;-48
2022/09/30 10:52:54;;;;;;;26.15;13.95;;;;;;;20.33;43.76;100662.13;5112304;27;20373;-46
2022/09/30 10:58:19;;;;;;;22.98;13.27;;;;;;;19.76;44.34;100658.63;5129313;27;20452;-49
2022/09/30 11:00:50;;;;;;;24.60;12.32;;;;;;;20.89;43.66;100654.97;5088237;28;20684;-48
2022/09/30 11:03:22;;;;;;;25.48;12.57;;;;;;;21.42;41.89;100658.91;5090761;28;20057;-49
2022/09/30 11:05:49;;;;;;;30.10;13.25;;;;;;;21.59;42.35;100658.28;5105027;28;20105;-48
2022/09/30 11:08:32;;;;;;;23.88;11.90;;;;;;;23.17;39.56;100668.56;5091420;28;20521;-49
2022/09/30 11:11:13;;;;;;;23.77;11.07;;;;;;;22.26;41.21;100663.53;5077049;28;20079;-47
2022/09/30 11:14:03;;;;;;;25.23;12.30;;;;;;;21.49;41.54;100672.34;5089128;28;20048;-48
2022/09/30 11:19:33;;;;;;;26.88;12.18;;;;;;;18.75;48.32;100673.44;5171384;27;19919;-49
2022/09/30 11:22:31;;;;;;;22.85;10.85;;;;;;;18.66;47.99;100664.78;5146172;27;20121;-57
2022/09/30 11:24:59;;;;;;;22.20;11.25;;;;;;;18.06;49.22;100661.31;5126601;27;20051;-58
2022/09/30 11:27:38;;;;;;;21.58;10.68;;;;;;;18.94;46.23;100669.13;5121785;27;20130;-58
2022/09/30 11:30:15;;;;;;;23.40;10.05;;;;;;;17.77;49.50;100668.66;5129194;28;20038;-59
2022/09/30 11:33:11;;;;;;;19.50;9.25;;;;;;;18.19;47.77;100661.28;5129306;28;20485;-57
2022/09/30 11:36:03;;;;;;;18.83;8.65;;;;;;;18.84;45.83;100663.34;5132914;27;20323;-59
2022/09/30 11:39:00;;;;;;;21.33;10.82;;;;;;;19.21;46.02;100663.63;5150433;27;20037;-59
2022/09/30 11:41:35;;;;;;;20.67;9.80;;;;;;;19.43;44.15;100674.91;5138111;27;20061;-58
2022/09/30 11:44:30;;;;;;;19.42;9.13;;;;;;;18.83;45.49;100657.16;5111431;28;20054;-58
2022/09/30 11:52:46;;;;;;;22.58;9.57;;;;;;;16.48;52.36;100646.81;4995054;27;20354;-57
2022/09/30 11:55:41;;;;;;;24.98;10.68;;;;;;;17.46;52.23;100651.25;5102239;28;20053;-58
2022/09/30 11:58:12;;;;;;;19.90;10.57;;;;;;;17.97;49.35;100641.88;5102222;28;20059;-57
2022/09/30 12:01:00;;;;;;;24.70;11.35;;;;;;;18.02;47.42;100628.69;5085409;28;20067;-49
2022/09/30 12:03:35;;;;;;;26.17;10.07;;;;;;;17.93;47.76;100628.03;5101231;28;20035;-46
2022/09/30 12:06:10;;;;;;;20.00;9.60;;;;;;;18.52;47.59;100631.75;5101999;28;20055;-58
2022/09/30 12:08:43;;;;;;;19.92;8.75;;;;;;;18.72;48.48;100628.19;5092506;28;20041;-57
2022/09/30 12:11:15;;;;;;;20.50;9.43;;;;;;;18.30;46.19;100628.47;5088220;28;20046;-58
2022/09/30 12:13:48;;;;;;;19.40;9.00;;;;;;;18.46;47.27;100629.06;5087947;28;20514;-58
2022/09/30 12:16:19;;;;;;;20.95;9.82;;;;;;;18.07;49.33;100630.75;5089599;28;20115;-58
2022/09/30 12:18:56;;;;;;;22.83;9.30;;;;;;;17.79;46.87;100623.66;5085560;28;20454;-57